createdAt,value
2023-10-09T00:01:19.052Z,2.20
2023-10-09T00:03:56.598Z,1.80
2023-10-09T00:06:39.066Z,2.00
2023-10-09T00:09:22.506Z,1.98
2023-10-09T00:11:58.492Z,1.80
2023-10-09T00:14:31.988Z,1.90
2023-10-09T00:17:20.981Z,2.13
2023-10-09T00:20:01.355Z,1.80
2023-10-09T00:22:39.383Z,1.77
2023-10-09T00:25:23.087Z,1.73
2023-10-09T00:27:53.698Z,1.70
2023-10-09T00:30:23.450Z,1.95
2023-10-09T00:33:01.371Z,1.63
2023-10-09T00:35:47.990Z,1.77
2023-10-09T00:38:25.279Z,1.65
2023-10-09T00:41:05.571Z,1.95
2023-10-09T00:43:38.613Z,1.70
2023-10-09T00:46:18.071Z,1.90
2023-10-09T00:48:49.706Z,2.05
2023-10-09T00:51:25.977Z,2.33
2023-10-09T00:53:59.408Z,1.63
2023-10-09T00:56:40.457Z,1.90
2023-10-09T01:01:58.432Z,2.03
2023-10-09T01:04:31.148Z,1.90
2023-10-09T01:07:10.582Z,29.45
2023-10-09T01:09:44.774Z,11.00
2023-10-09T01:12:21.374Z,3.30
2023-10-09T01:14:54.246Z,1.90
2023-10-09T01:17:37.869Z,2.03
2023-10-09T01:20:18.248Z,1.63
2023-10-09T01:22:51.982Z,2.20
2023-10-09T01:25:25.506Z,29.35
2023-10-09T01:27:58.319Z,49.97
2023-10-09T01:30:29.485Z,17.70
2023-10-09T01:33:13.273Z,5.97
2023-10-09T01:35:50.347Z,2.67
2023-10-09T01:38:31.759Z,2.17
2023-10-09T01:41:09.501Z,1.90
2023-10-09T01:43:40.215Z,2.33
2023-10-09T01:46:12.226Z,2.03
2023-10-09T01:48:47.844Z,1.92
2023-10-09T01:51:20.741Z,2.10
2023-10-09T01:53:58.198Z,2.40
2023-10-09T01:56:32.326Z,2.00
2023-10-09T01:59:07.099Z,2.00
2023-10-09T02:01:42.432Z,1.70
2023-10-09T02:04:16.071Z,2.08
2023-10-09T02:06:46.923Z,2.22
2023-10-09T02:09:24.288Z,2.45
2023-10-09T02:11:58.546Z,2.33
2023-10-09T02:14:29.175Z,2.40
2023-10-09T02:17:19.095Z,2.28
2023-10-09T02:19:53.730Z,2.20
2023-10-09T02:22:27.606Z,2.25
2023-10-09T02:25:08.964Z,2.10
2023-10-09T02:27:46.838Z,2.03
2023-10-09T02:30:28.509Z,1.92
2023-10-09T02:33:08.404Z,1.70
2023-10-09T02:35:44.105Z,2.30
2023-10-09T02:38:15.974Z,2.08
2023-10-09T02:41:17.382Z,2.20
2023-10-09T02:46:30.649Z,2.20
2023-10-09T02:49:07.677Z,6.25
2023-10-09T02:51:43.339Z,5.75
2023-10-09T02:54:36.238Z,3.53
2023-10-09T02:57:10.163Z,3.38
2023-10-09T02:59:46.474Z,4.30
2023-10-09T03:02:17.243Z,9.80
2023-10-09T03:04:48.033Z,3.28
2023-10-09T03:07:18.668Z,3.38
2023-10-09T03:09:50.028Z,3.95
2023-10-09T03:12:20.901Z,3.92
2023-10-09T03:17:26.607Z,3.95
2023-10-09T03:19:57.173Z,4.47
2023-10-09T03:22:28.177Z,4.30
2023-10-09T03:24:59.368Z,4.43
2023-10-09T03:27:30.538Z,5.20
2023-10-09T03:30:06.641Z,5.03
2023-10-09T03:32:37.255Z,6.00
2023-10-09T03:35:15.624Z,6.00
2023-10-09T03:37:46.157Z,6.47
2023-10-09T03:40:19.297Z,6.85
2023-10-09T03:42:50.002Z,6.07
2023-10-09T03:45:31.282Z,6.43
2023-10-09T03:48:10.727Z,6.50
2023-10-09T03:50:44.675Z,7.28
2023-10-09T03:53:15.395Z,9.30
2023-10-09T03:55:45.904Z,6.93
2023-10-09T03:58:20.315Z,6.53
2023-10-09T04:00:53.721Z,6.13
2023-10-09T04:03:26.267Z,5.95
2023-10-09T04:05:57.545Z,6.43
2023-10-09T04:08:34.766Z,7.30
2023-10-09T04:11:05.800Z,7.28
2023-10-09T04:13:41.567Z,7.22
2023-10-09T04:16:34.924Z,6.43
2023-10-09T04:19:12.901Z,7.10
2023-10-09T04:21:43.206Z,6.47
2023-10-09T04:24:24.184Z,6.57
2023-10-09T04:29:48.286Z,5.90
2023-10-09T04:32:22.011Z,6.47
2023-10-09T04:34:59.171Z,5.97
2023-10-09T04:37:40.664Z,6.57
2023-10-09T04:40:36.396Z,6.00
2023-10-09T04:43:11.029Z,5.85
2023-10-09T04:45:54.160Z,6.82
2023-10-09T04:48:39.565Z,6.47
2023-10-09T04:51:24.197Z,6.82
2023-10-09T04:54:01.842Z,6.30
2023-10-09T04:56:33.728Z,6.78
2023-10-09T04:59:09.581Z,6.75
2023-10-09T05:01:45.341Z,6.60
2023-10-09T05:04:40.827Z,6.22
2023-10-09T05:07:24.163Z,6.78
2023-10-09T05:10:15.920Z,6.63
2023-10-09T05:12:49.103Z,6.80
2023-10-09T05:15:28.328Z,5.78
2023-10-09T05:17:58.019Z,6.95
2023-10-09T05:20:43.601Z,6.57
2023-10-09T05:23:26.494Z,6.97
2023-10-09T05:26:00.429Z,6.28
2023-10-09T05:28:50.123Z,7.10
2023-10-09T05:31:32.856Z,6.57
2023-10-09T05:34:04.242Z,7.25
2023-10-09T05:36:36.893Z,7.03
2023-10-09T05:39:20.151Z,6.32
2023-10-09T05:42:01.251Z,7.13
2023-10-09T05:44:50.211Z,6.80
2023-10-09T05:47:35.976Z,7.13
2023-10-09T05:50:19.069Z,7.10
2023-10-09T05:53:06.513Z,6.25
2023-10-09T05:55:49.614Z,7.00
2023-10-09T05:58:32.545Z,6.67
2023-10-09T06:01:21.482Z,6.82
2023-10-09T06:04:06.181Z,6.90
2023-10-09T06:06:44.510Z,7.05
2023-10-09T06:09:51.625Z,7.30
2023-10-09T06:12:35.741Z,6.32
2023-10-09T06:15:22.683Z,8.15
2023-10-09T06:18:01.525Z,7.30
2023-10-09T06:21:01.448Z,7.65
2023-10-09T06:23:44.172Z,7.72
2023-10-09T06:26:27.857Z,6.65
2023-10-09T06:29:10.541Z,6.90
2023-10-09T06:31:59.001Z,6.57
2023-10-09T06:34:36.934Z,7.05
2023-10-09T06:37:19.151Z,7.13
2023-10-09T06:40:08.093Z,7.32
2023-10-09T06:42:52.696Z,7.22
2023-10-09T06:45:45.305Z,7.50
2023-10-09T06:48:28.985Z,7.20
2023-10-09T06:51:05.337Z,7.55
2023-10-09T06:53:48.289Z,7.38
2023-10-09T06:56:25.252Z,7.28
2023-10-09T06:58:56.637Z,7.88
2023-10-09T07:01:41.449Z,8.20
2023-10-09T07:04:20.571Z,10.07
2023-10-09T07:06:53.270Z,7.65
2023-10-09T07:09:21.355Z,8.57
2023-10-09T07:12:11.298Z,7.72
2023-10-09T07:15:09.163Z,7.65
2023-10-09T07:17:48.941Z,8.55
2023-10-09T07:20:37.639Z,7.85
2023-10-09T07:23:22.553Z,8.70
2023-10-09T07:25:59.882Z,8.73
2023-10-09T07:28:38.524Z,8.63
2023-10-09T07:31:25.610Z,7.97
2023-10-09T07:34:01.150Z,8.55
2023-10-09T07:36:39.560Z,8.57
2023-10-09T07:39:24.045Z,8.13
2023-10-09T07:42:03.377Z,8.48
2023-10-09T07:44:44.158Z,8.13
2023-10-09T07:47:29.661Z,8.43
2023-10-09T07:50:00.772Z,10.35
2023-10-09T07:52:31.379Z,8.57
2023-10-09T07:55:23.905Z,8.43
2023-10-09T07:57:54.583Z,8.18
2023-10-09T08:01:00.388Z,9.45
2023-10-09T08:03:35.440Z,8.52
2023-10-09T08:06:31.463Z,8.10
2023-10-09T08:09:20.161Z,7.95
2023-10-09T08:12:21.470Z,7.88
2023-10-09T08:15:00.560Z,8.70
2023-10-09T08:17:30.584Z,8.75
2023-10-09T08:20:12.818Z,8.60
2023-10-09T08:22:53.607Z,7.43
2023-10-09T08:25:33.451Z,8.10
2023-10-09T08:28:18.289Z,8.18
2023-10-09T08:31:04.632Z,8.13
2023-10-09T08:36:24.407Z,7.63
2023-10-09T08:38:59.640Z,7.93
2023-10-09T08:41:31.490Z,9.05
2023-10-09T08:44:05.149Z,8.07
2023-10-09T08:46:38.454Z,8.13
2023-10-09T08:49:11.354Z,8.30
2023-10-09T08:51:44.780Z,7.63
2023-10-09T08:54:16.448Z,8.85
2023-10-09T08:56:51.319Z,7.63
2023-10-09T08:59:23.281Z,7.50
2023-10-09T09:01:59.805Z,7.50
2023-10-09T09:04:41.092Z,8.18
2023-10-09T09:07:33.144Z,7.75
2023-10-09T09:10:19.103Z,7.40
2023-10-09T09:12:54.721Z,7.55
2023-10-09T09:15:28.312Z,8.77
2023-10-09T09:18:12.263Z,8.30
2023-10-09T09:20:47.291Z,8.25
2023-10-09T09:23:25.239Z,8.02
2023-10-09T09:26:00.525Z,7.93
2023-10-09T09:28:40.383Z,8.75
2023-10-09T09:31:16.350Z,8.38
2023-10-09T09:33:49.741Z,8.50
2023-10-09T09:36:20.942Z,8.52
2023-10-09T09:39:02.748Z,8.80
2023-10-09T09:41:35.178Z,8.32
2023-10-09T09:44:06.928Z,9.43
2023-10-09T09:46:40.224Z,8.85
2023-10-09T09:49:18.263Z,10.23
2023-10-09T09:51:50.097Z,8.38
2023-10-09T09:54:27.743Z,8.40
2023-10-09T09:57:00.550Z,8.75
2023-10-09T09:59:36.767Z,7.50
2023-10-09T10:02:10.780Z,8.27
2023-10-09T10:04:45.709Z,8.80
2023-10-09T10:07:22.676Z,7.80
2023-10-09T10:09:59.156Z,8.05
2023-10-09T10:13:05.774Z,8.27
2023-10-09T10:16:21.590Z,7.50
2023-10-09T10:19:08.481Z,7.95
2023-10-09T10:21:41.333Z,7.78
2023-10-09T10:24:55.664Z,7.38
2023-10-09T10:27:33.081Z,7.85
2023-10-09T10:30:44.777Z,8.10
2023-10-09T10:33:17.828Z,7.13
2023-10-09T10:35:54.200Z,7.60
2023-10-09T10:38:38.260Z,7.03
2023-10-09T10:41:18.203Z,7.15
2023-10-09T10:44:23.995Z,7.15
2023-10-09T10:46:56.023Z,7.03
2023-10-09T10:49:37.883Z,8.73
2023-10-09T10:52:20.294Z,6.60
2023-10-09T10:55:07.045Z,7.20
2023-10-09T10:57:52.961Z,7.50
2023-10-09T11:00:38.540Z,7.47
2023-10-09T11:03:20.685Z,7.10
2023-10-09T11:05:56.884Z,7.03
2023-10-09T11:08:34.084Z,7.18
2023-10-09T11:11:20.894Z,6.85
2023-10-09T11:13:59.103Z,7.10
2023-10-09T11:16:43.441Z,8.10
2023-10-09T11:19:30.456Z,7.68
2023-10-09T11:22:16.998Z,7.63
2023-10-09T11:24:48.378Z,6.97
2023-10-09T11:27:21.876Z,7.53
2023-10-09T11:30:06.999Z,7.45
2023-10-09T11:32:39.924Z,7.22
2023-10-09T11:35:35.850Z,6.95
2023-10-09T11:38:22.671Z,6.20
2023-10-09T11:41:07.820Z,6.50
2023-10-09T11:43:55.779Z,6.43
2023-10-09T11:46:39.498Z,7.18
2023-10-09T11:49:26.790Z,6.68
2023-10-09T11:52:09.942Z,6.07
2023-10-09T11:54:40.961Z,6.60
2023-10-09T11:59:42.696Z,6.53
2023-10-09T12:02:14.908Z,6.60
2023-10-09T12:04:48.304Z,6.13
2023-10-09T12:07:21.962Z,6.95
2023-10-09T12:09:57.571Z,6.72
2023-10-09T12:12:29.276Z,7.45
2023-10-09T12:14:59.766Z,7.35
2023-10-09T12:17:30.529Z,6.82
2023-10-09T12:20:15.844Z,6.82
2023-10-09T12:22:46.476Z,6.47
2023-10-09T12:25:19.340Z,6.80
2023-10-09T12:27:49.895Z,6.82
2023-10-09T12:30:28.046Z,6.85
2023-10-09T12:32:59.153Z,6.63
2023-10-09T12:35:35.835Z,7.00
2023-10-09T12:38:09.973Z,6.90
2023-10-09T12:40:43.604Z,6.97
2023-10-09T12:43:16.830Z,7.30
2023-10-09T12:45:47.521Z,6.88
2023-10-09T12:48:18.577Z,7.53
2023-10-09T12:50:55.575Z,7.30
2023-10-09T12:53:30.952Z,7.15
2023-10-09T12:56:03.042Z,6.97
2023-10-09T12:58:41.027Z,7.47
2023-10-09T13:01:13.605Z,7.05
2023-10-09T13:03:44.372Z,6.80
2023-10-09T13:11:31.812Z,6.55
2023-10-09T13:14:13.120Z,7.28
2023-10-09T13:16:43.865Z,7.65
2023-10-09T13:19:14.826Z,7.30
2023-10-09T13:24:25.769Z,7.15
2023-10-09T13:26:59.580Z,8.38
2023-10-09T13:29:35.231Z,8.18
2023-10-09T13:32:14.853Z,7.80
2023-10-09T13:34:47.921Z,7.97
2023-10-09T13:37:23.473Z,9.43
2023-10-09T13:39:57.848Z,7.75
2023-10-09T13:42:28.839Z,8.38
2023-10-09T13:45:05.968Z,7.97
2023-10-09T13:47:37.288Z,7.72
2023-10-09T13:50:10.986Z,7.75
2023-10-09T13:52:47.165Z,8.85
2023-10-09T13:55:19.335Z,7.97
2023-10-09T13:57:49.915Z,8.20
2023-10-09T14:00:34.900Z,7.80
2023-10-09T14:03:13.450Z,7.60
2023-10-09T14:05:53.252Z,7.85
2023-10-09T14:08:30.351Z,8.10
2023-10-09T14:11:01.594Z,8.73
2023-10-09T14:13:32.538Z,8.40
2023-10-09T14:18:34.436Z,8.45
2023-10-09T14:21:17.559Z,8.38
2023-10-09T14:23:51.328Z,8.50
2023-10-09T14:26:23.531Z,9.25
2023-10-09T14:28:54.469Z,8.55
2023-10-09T14:34:00.326Z,8.32
2023-10-09T14:36:35.072Z,8.27
2023-10-09T14:39:08.652Z,9.40
2023-10-09T14:41:39.201Z,8.15
2023-10-09T14:44:18.019Z,8.50
2023-10-09T14:46:50.664Z,8.75
2023-10-09T14:49:22.884Z,9.00
2023-10-09T14:51:54.784Z,8.18
2023-10-09T14:54:29.048Z,9.02
2023-10-09T14:56:59.852Z,8.27
2023-10-09T14:59:30.560Z,8.30
2023-10-09T15:02:01.334Z,8.60
2023-10-09T15:04:32.841Z,7.97
2023-10-09T15:07:03.382Z,8.45
2023-10-09T15:09:37.943Z,8.88
2023-10-09T15:12:10.294Z,10.32
2023-10-09T15:14:40.953Z,9.43
2023-10-09T15:17:12.395Z,10.35
2023-10-09T15:19:43.353Z,9.15
2023-10-09T15:24:47.261Z,8.85
2023-10-09T15:27:18.070Z,8.80
2023-10-09T15:29:50.651Z,8.63
2023-10-09T15:32:24.166Z,9.15
2023-10-09T15:35:00.246Z,9.00
2023-10-09T15:37:32.013Z,8.80
2023-10-09T15:40:15.694Z,9.00
2023-10-09T15:42:51.586Z,11.68
2023-10-09T15:45:24.152Z,10.25
2023-10-09T15:47:55.300Z,9.63
2023-10-09T15:50:27.427Z,9.18
2023-10-09T15:52:59.803Z,9.77
2023-10-09T15:55:35.289Z,9.75
2023-10-09T15:58:10.045Z,8.75
2023-10-09T16:00:40.874Z,9.32
2023-10-09T16:05:48.359Z,10.07
2023-10-09T16:08:20.784Z,9.48
2023-10-09T16:10:54.090Z,9.95
2023-10-09T16:13:24.748Z,9.52
2023-10-09T16:15:57.705Z,11.30
2023-10-09T16:18:28.826Z,10.52
2023-10-09T16:21:00.617Z,10.10
2023-10-09T16:23:32.437Z,9.93
2023-10-09T16:26:05.743Z,9.70
2023-10-09T16:28:37.675Z,9.57
2023-10-09T16:31:14.754Z,9.60
2023-10-09T16:33:45.598Z,9.85
2023-10-09T16:36:16.989Z,15.48
2023-10-09T16:38:48.107Z,10.45
2023-10-09T16:41:21.792Z,9.50
2023-10-09T16:43:53.851Z,9.20
2023-10-09T16:46:24.888Z,7.55
2023-10-09T16:48:59.016Z,7.75
2023-10-09T16:51:29.613Z,7.72
2023-10-09T16:54:00.351Z,7.22
2023-10-09T16:56:34.927Z,6.90
2023-10-09T16:59:06.619Z,7.65
2023-10-09T17:01:37.723Z,7.72
2023-10-09T17:04:13.371Z,7.78
2023-10-09T17:06:45.184Z,7.57
2023-10-09T17:09:16.068Z,6.95
2023-10-09T17:14:27.678Z,7.20
2023-10-09T17:16:59.064Z,32.75
2023-10-09T17:19:29.848Z,8.43
2023-10-09T17:22:08.183Z,7.43
2023-10-09T17:24:39.978Z,7.10
2023-10-09T17:27:19.301Z,8.00
2023-10-09T17:29:50.020Z,7.28
2023-10-09T17:32:20.697Z,7.80
2023-10-09T17:34:51.269Z,8.60
2023-10-09T17:37:23.588Z,8.27
2023-10-09T17:39:54.068Z,8.30
2023-10-09T17:42:27.285Z,7.80
2023-10-09T17:44:58.120Z,7.70
2023-10-09T17:47:29.230Z,8.07
2023-10-09T17:50:00.159Z,8.02
2023-10-09T17:55:02.297Z,7.93
2023-10-09T17:57:35.521Z,8.30
2023-10-09T18:00:10.329Z,7.07
2023-10-09T18:02:43.917Z,8.55
2023-10-09T18:05:31.721Z,8.25
2023-10-09T18:08:05.461Z,7.57
2023-10-09T18:10:45.922Z,7.72
2023-10-09T18:13:22.185Z,9.52
2023-10-09T18:16:15.189Z,8.75
2023-10-09T18:18:50.903Z,8.30
2023-10-09T18:21:29.266Z,8.50
2023-10-09T18:24:09.833Z,8.70
2023-10-09T18:26:49.324Z,8.85
2023-10-09T18:29:26.367Z,8.85
2023-10-09T18:32:03.468Z,9.18
2023-10-09T18:34:41.024Z,8.57
2023-10-09T18:37:20.342Z,9.20
2023-10-09T18:40:00.308Z,8.95
2023-10-09T18:42:48.878Z,7.87
2023-10-09T18:45:38.025Z,8.75
2023-10-09T18:48:29.507Z,8.85
2023-10-09T18:51:21.931Z,9.60
2023-10-09T18:53:57.608Z,8.73
2023-10-09T18:56:31.015Z,9.45
2023-10-09T18:59:18.160Z,9.65
2023-10-09T19:01:57.791Z,9.45
2023-10-09T19:04:36.753Z,9.60
2023-10-09T19:07:14.499Z,9.02
2023-10-09T19:09:49.673Z,8.97
2023-10-09T19:12:20.301Z,8.98
2023-10-09T19:15:04.425Z,9.55
2023-10-09T19:17:59.039Z,9.60
2023-10-09T19:20:34.821Z,9.43
2023-10-09T19:23:19.518Z,9.45
2023-10-09T19:25:54.553Z,10.13
2023-10-09T19:28:38.667Z,9.95
2023-10-09T19:31:12.220Z,9.20
2023-10-09T19:33:49.236Z,10.63
2023-10-09T19:36:24.987Z,9.80
2023-10-09T19:39:02.217Z,10.65
2023-10-09T19:41:59.505Z,9.48
2023-10-09T19:44:38.695Z,9.73
2023-10-09T19:47:09.873Z,9.63
2023-10-09T19:49:52.564Z,9.88
2023-10-09T19:52:25.838Z,10.43
2023-10-09T19:55:08.733Z,10.32
2023-10-09T19:57:45.844Z,9.75
2023-10-09T20:00:23.347Z,8.20
2023-10-09T20:02:55.459Z,9.70
2023-10-09T20:05:28.994Z,8.90
2023-10-09T20:08:00.714Z,9.02
2023-10-09T20:10:32.107Z,9.52
2023-10-09T20:13:05.316Z,10.45
2023-10-09T20:15:36.571Z,16.70
2023-10-09T20:18:08.499Z,11.68
2023-10-09T20:20:46.893Z,10.95
2023-10-09T20:23:17.946Z,10.60
2023-10-09T20:25:48.754Z,11.38
2023-10-09T20:28:19.521Z,11.63
2023-10-09T20:33:22.022Z,10.85
2023-10-09T20:35:57.560Z,11.70
2023-10-09T20:38:28.631Z,11.52
2023-10-09T20:40:59.518Z,11.80
2023-10-09T20:48:33.039Z,11.02
2023-10-09T20:51:07.333Z,11.23
2023-10-09T20:53:37.926Z,12.50
2023-10-09T20:56:09.832Z,12.48
2023-10-09T20:58:42.877Z,11.85
2023-10-09T21:01:17.084Z,11.30
2023-10-09T21:03:50.618Z,13.07
2023-10-09T21:06:25.365Z,12.75
2023-10-09T21:08:56.721Z,14.07
2023-10-09T21:11:27.357Z,13.00
2023-10-09T21:13:58.005Z,13.88
2023-10-09T21:16:28.606Z,13.18
2023-10-09T21:18:59.284Z,13.32
2023-10-09T21:21:32.856Z,13.70
2023-10-09T21:24:03.500Z,13.90
2023-10-09T21:26:34.205Z,12.98
2023-10-09T21:29:04.783Z,13.05
2023-10-09T21:31:35.767Z,13.73
2023-10-09T21:34:06.490Z,13.57
2023-10-09T21:36:39.676Z,13.35
2023-10-09T21:39:10.917Z,13.55
2023-10-09T21:41:41.641Z,14.27
2023-10-09T21:44:14.979Z,14.57
2023-10-09T21:46:46.683Z,14.00
2023-10-09T21:49:17.387Z,14.30
2023-10-09T21:51:51.508Z,14.27
2023-10-09T21:54:22.126Z,13.75
2023-10-09T21:56:52.807Z,14.73
2023-10-09T21:59:23.366Z,14.40
2023-10-09T22:01:54.399Z,13.48
2023-10-09T22:04:27.049Z,14.65
2023-10-09T22:07:00.237Z,14.27
2023-10-09T22:09:30.824Z,14.68
2023-10-09T22:12:01.444Z,14.52
2023-10-09T22:14:33.139Z,14.90
2023-10-09T22:17:04.876Z,14.65
2023-10-09T22:19:37.666Z,14.98
2023-10-09T22:22:14.174Z,14.85
2023-10-09T22:24:49.859Z,14.27
2023-10-09T22:27:25.289Z,13.85
2023-10-09T22:29:56.694Z,15.73
2023-10-09T22:32:28.840Z,15.40
2023-10-09T22:35:01.913Z,15.25
2023-10-09T22:37:38.663Z,15.88
2023-10-09T22:40:22.485Z,15.35
2023-10-09T22:42:53.517Z,16.00
2023-10-09T22:45:31.866Z,14.98
2023-10-09T22:48:05.003Z,15.77
2023-10-09T22:50:46.597Z,14.77
2023-10-09T22:53:34.313Z,16.00
2023-10-09T22:56:07.787Z,15.45
2023-10-09T22:58:52.468Z,15.30
2023-10-09T23:01:27.974Z,16.80
2023-10-09T23:04:17.124Z,16.08
2023-10-09T23:06:48.352Z,15.90
2023-10-09T23:09:32.387Z,17.10
2023-10-09T23:12:08.794Z,16.27
2023-10-09T23:14:39.438Z,17.20
2023-10-09T23:17:10.080Z,16.25
2023-10-09T23:19:45.700Z,16.50
2023-10-09T23:22:15.713Z,16.42
2023-10-09T23:24:55.038Z,16.40
2023-10-09T23:27:49.086Z,17.65
2023-10-09T23:30:26.551Z,18.08
2023-10-09T23:33:11.298Z,16.88
2023-10-09T23:35:52.425Z,17.10
2023-10-09T23:38:33.300Z,16.67
2023-10-09T23:43:49.778Z,17.75
2023-10-09T23:46:25.172Z,16.45
2023-10-09T23:48:56.663Z,17.80
2023-10-09T23:51:28.370Z,17.55
2023-10-09T23:54:03.080Z,17.20
2023-10-09T23:56:44.129Z,16.52
